PORTS® Data Listing: 8720218 Mayport (Bar Pilots Dock), FL

CO-OPS RAW PORTS DATA

************************      PRELIMINARY DATA      ************************** 

     THIS RAW DATA HAS NOT BEEN SUBJECT TO THE NATIONAL OCEAN SERVICE'S        
     QUALITY CONTROL OR QUALITY ASSURANCE PROCEDURES AND DOES NOT MEET         
     THE CRITERIA AND STANDARDS OF OFFICIAL NATIONAL OCEAN SERVICE             
     DATA.  IT IS RELEASED FOR LIMITED PUBLIC USE AS PRELIMINARY DATA TO       
     BE USED ONLY WITH APPROPRIATE CAUTION.                                    

************************      PRELIMINARY DATA      ************************** 


       CD   -   Calendar date
       T    -   Time
       TZ   -   Timezone
       PW   -   Predicted water level (feet above MLLW)
       OW   -   Observed water level (feet above MLLW)
       WS   -   Wind speed (knots)
       WD   -   Wind direction (degrees true)
       WG   -   Wind gust (knots)
       AT   -   Air temperature (degrees farenheit)
       WT   -   Water temperature (degrees farenheit)
       AP   -   Air pressure (millibars)
       SA   -   Salinty (PSU - Practical Salinity Units)
       SG   -   Specific gravity
       RH   -   Relative humidity
       AG   -   Air gap (feet)
       VI   -   Visibility (nautical miles)

       ** NOTE **
       A variable that has its data fields filled with "9"s, indicates that
       data was not collected for that sample period.
       **********


STATION NAME: Mayport Bar Pilots Dock (8720218)
****************************************************************************************************
    CD       T    TZ    PW     OW    WS   WD   WG    AT    WT    AP    SA    SG     RH    AG   VI
****************************************************************************************************
2019/12/07 12:06 EST    1.32   1.88   12   37   15  62.4  63.5 1022.8  7.6  1.005 -99.9 -99.99 -9.99
2019/12/07 12:12 EST    1.39   1.94   13   37   15  62.4  63.5 1022.8  7.6  1.005 -99.9 -99.99 -9.99
2019/12/07 12:18 EST    1.45   2.03   12   21   15  62.4  63.5 1022.8  7.5  1.005 -99.9 -99.99 -9.99
2019/12/07 12:24 EST    1.51   2.09   13   25   15  62.4  63.5 1022.5  7.5  1.005 -99.9 -99.99 -9.99
2019/12/07 12:30 EST    1.58   2.09   12   30   17  62.6  63.5 1022.4  7.5  1.005 -99.9 -99.99 -9.99
2019/12/07 12:36 EST    1.65   2.16   12   39   15  62.6  63.5 1022.4  7.4  1.005 -99.9 -99.99 -9.99
2019/12/07 12:42 EST    1.73   2.29   12   37   15  62.6  63.3 1022.4  7.3  1.005 -99.9 -99.99 -9.99
2019/12/07 12:48 EST    1.80   2.40   13   38   15  62.6  63.3 1022.4  7.3  1.005 -99.9 -99.99 -9.99
2019/12/07 12:54 EST    1.87   2.46   12   37   15  62.6  63.3 1022.4  7.3  1.005 -99.9 -99.99 -9.99
2019/12/07 13:00 EST    1.95   2.52   13   41   15  62.6  63.5 1022.3  7.3  1.005 -99.9 -99.99 -9.99
2019/12/07 13:06 EST    2.03   2.58   12   33   15  62.2  63.5 1022.3  7.3  1.005 -99.9 -99.99 -9.99
2019/12/07 13:12 EST    2.10   2.64   12   41   14  62.4  63.5 1022.2  7.3  1.005 -99.9 -99.99 -9.99
2019/12/07 13:18 EST    2.18   2.73   11   41   15  62.6  63.5 1022.2  7.2  1.005 -99.9 -99.99 -9.99
2019/12/07 13:24 EST    2.26   2.83   12   36   14  62.6  63.5 1022.2  7.3  1.005 -99.9 -99.99 -9.99
2019/12/07 13:30 EST    2.34   2.92   12   40   15  62.6  63.5 1022.1  7.2  1.005 -99.9 -99.99 -9.99
2019/12/07 13:36 EST    2.42   3.00   12   37   13  62.6  63.5 1022.0  7.2  1.005 -99.9 -99.99 -9.99
2019/12/07 13:42 EST    2.50   3.07   12   28   13  62.8  63.5 1022.0  7.2  1.005 -99.9 -99.99 -9.99
2019/12/07 13:48 EST    2.57   3.16   10   43   14  63.0  63.7 1022.0  7.2  1.005 -99.9 -99.99 -9.99
2019/12/07 13:54 EST    2.65   3.25   12   40   13  62.8  63.7 1022.0  7.2  1.005 -99.9 -99.99 -9.99
2019/12/07 14:00 EST    2.73   3.31   11   37   14  63.0  63.9 1022.0  7.1  1.005 -99.9 -99.99 -9.99
2019/12/07 14:06 EST    2.80   3.44   12   32   13  63.0  63.9 1021.9  7.1  1.005 -99.9 -99.99 -9.99
2019/12/07 14:12 EST    2.88   3.52   12   40   14  63.0  63.9 1022.0  7.1  1.005 -99.9 -99.99 -9.99
2019/12/07 14:18 EST    2.95   3.59   11   32   13  63.0  63.9 1022.0  7.1  1.005 -99.9 -99.99 -9.99
2019/12/07 14:24 EST    3.03   3.69   12   33   14  63.0  63.9 1022.0  7.1  1.005 -99.9 -99.99 -9.99
2019/12/07 14:30 EST    3.10   3.80   10   39   14  63.1  63.9 1022.0  7.1  1.005 -99.9 -99.99 -9.99
2019/12/07 14:36 EST    3.17   3.80   11   38   14  63.0  63.9 1022.0  7.1  1.005 -99.9 -99.99 -9.99
2019/12/07 14:42 EST    3.24   3.84   12   41   15  62.8  64.0 1022.0  7.1  1.005 -99.9 -99.99 -9.99
2019/12/07 14:48 EST    3.31   3.89   12   29   15  62.8  64.0 1022.1  7.2  1.005 -99.9 -99.99 -9.99
2019/12/07 14:54 EST    3.38   3.98   12   34   14  62.8  64.0 1022.3  7.2  1.005 -99.9 -99.99 -9.99
2019/12/07 15:00 EST    3.44   4.06   12   31   14  62.6  64.0 1022.3  7.2  1.005 -99.9 -99.99 -9.99
2019/12/07 15:06 EST    3.50   4.12   11   19   13  62.6  64.0 1022.4  7.2  1.005 -99.9 -99.99 -9.99
2019/12/07 15:12 EST    3.56   4.14   11   16   12  62.6  64.0 1022.4  7.2  1.005 -99.9 -99.99 -9.99
2019/12/07 15:18 EST    3.62   4.20   10   28   12  62.8  64.2 1022.5  7.3  1.005 -99.9 -99.99 -9.99
2019/12/07 15:24 EST    3.68   4.26   11   30   13  62.8  64.2 1022.6  7.4  1.005 -99.9 -99.99 -9.99
2019/12/07 15:30 EST    3.74   4.31   11   37   14  62.6  64.4 1022.5  7.5  1.005 -99.9 -99.99 -9.99
2019/12/07 15:36 EST    3.79   4.36   12   21   15  62.6  64.6 1022.6  7.8  1.005 -99.9 -99.99 -9.99
2019/12/07 15:42 EST    3.84   4.41   12   32   15  62.6  64.6 1022.6  7.9  1.006 -99.9 -99.99 -9.99
2019/12/07 15:48 EST    3.88   4.48   13   33   15  62.6  64.6 1022.7  7.9  1.006 -99.9 -99.99 -9.99
2019/12/07 15:54 EST    3.93   4.51   13   29   15  62.4  64.6 1022.7  8.1  1.006 -99.9 -99.99 -9.99
2019/12/07 16:00 EST    3.97   4.57   13   33   15  62.4  64.6 1022.7  8.1  1.006 -99.9 -99.99 -9.99
2019/12/07 16:06 EST    4.01   4.58   12   22   14  62.6  64.6 1022.8  8.1  1.006 -99.9 -99.99 -9.99
2019/12/07 16:12 EST    4.04   4.61   12   27   15  62.4  64.8 1022.9  8.2  1.006 -99.9 -99.99 -9.99
2019/12/07 16:18 EST    4.07   4.66   12   21   15  62.4  64.8 1022.9  8.3  1.006 -99.9 -99.99 -9.99
2019/12/07 16:24 EST    4.10   4.70   13   26   16  62.4  64.8 1022.8  8.4  1.006 -99.9 -99.99 -9.99
2019/12/07 16:30 EST    4.13   4.76   11   29   14  62.6  64.9 1023.0  8.5  1.006 -99.9 -99.99 -9.99
2019/12/07 16:36 EST    4.15   4.72   11   26   13  62.4  64.9 1023.1  8.6  1.006 -99.9 -99.99 -9.99
2019/12/07 16:42 EST    4.17   4.65   12   23   14  62.4  64.9 1023.1  8.7  1.006 -99.9 -99.99 -9.99
2019/12/07 16:48 EST    4.18   4.76   10   42   15  62.6  64.9 1023.1  8.8  1.006 -99.9 -99.99 -9.99
2019/12/07 16:54 EST    4.19   4.77   12   25   14  62.4  64.9 1023.1  8.9  1.006 -99.9 -99.99 -9.99
2019/12/07 17:00 EST    4.20   4.74   12   26   15  62.2  65.1 1023.2  8.8  1.006 -99.9 -99.99 -9.99
2019/12/07 17:06 EST    4.20   4.78   10   22   15  62.4  65.1 1023.2  8.8  1.006 -99.9 -99.99 -9.99
2019/12/07 17:12 EST    4.20   4.79   12   29   15  62.6  65.1 1023.2  8.8  1.006 -99.9 -99.99 -9.99
2019/12/07 17:18 EST    4.19   4.78   11   24   14  62.4  65.1 1023.2  8.8  1.006 -99.9 -99.99 -9.99
2019/12/07 17:24 EST    4.18   4.79   12   24   14  62.4  65.1 1023.2  9.0  1.006 -99.9 -99.99 -9.99
2019/12/07 17:30 EST    4.16   4.78   12   22   15  62.4  65.1 1023.3  9.0  1.006 -99.9 -99.99 -9.99
2019/12/07 17:36 EST    4.14   4.76   11   24   15  62.4  65.1 1023.3  9.0  1.006 -99.9 -99.99 -9.99
2019/12/07 17:42 EST    4.11   4.74   12   21   14  62.4  65.1 1023.3  9.0  1.006 -99.9 -99.99 -9.99
2019/12/07 17:48 EST    4.08   4.71   12   23   14  62.4  65.1 1023.4  9.0  1.006 -99.9 -99.99 -9.99
2019/12/07 17:54 EST    4.05   4.68   11   23   15  62.4  65.1 1023.5  9.0  1.006 -99.9 -99.99 -9.99
2019/12/07 18:00 EST    4.01   4.67   11   19   15  62.2  65.1 1023.5  9.0  1.006 -99.9 -99.99 -9.99
2019/12/07 18:06 EST    3.96   4.65   10   15   13  62.2  65.1 1023.5  9.1  1.006 -99.9 -99.99 -9.99
2019/12/07 18:12 EST    3.91   4.62   11   24   13  62.2  65.1 1023.6  9.1  1.006 -99.9 -99.99 -9.99
2019/12/07 18:18 EST    3.85   4.59   10   18   14  62.4  65.1 1023.7  9.1  1.006 -99.9 -99.99 -9.99
2019/12/07 18:24 EST    3.79   4.55   11   23   14  62.4  65.1 1023.7  9.1  1.006 -99.9 -99.99 -9.99
2019/12/07 18:30 EST    3.72   4.50   13   24   15  62.6  65.1 1023.7  9.1  1.006 -99.9 -99.99 -9.99
2019/12/07 18:36 EST    3.65   4.42   13   20   16  62.6  65.1 1023.6  9.1  1.006 -99.9 -99.99 -9.99
2019/12/07 18:42 EST    3.57   4.36   12   23   14  62.6  65.1 1023.7  9.1  1.006 -99.9 -99.99 -9.99
2019/12/07 18:48 EST    3.49   4.30   11   25   13  62.6  65.1 1023.7  9.1  1.006 -99.9 -99.99 -9.99
2019/12/07 18:54 EST    3.41   4.24   11   23   16  62.8  65.1 1023.8  9.2  1.006 -99.9 -99.99 -9.99
2019/12/07 19:00 EST    3.32   4.16   11   22   14  63.0  65.1 1023.8  9.2  1.006 -99.9 -99.99 -9.99
2019/12/07 19:06 EST    3.23   4.07   11   26   13  63.0  65.1 1023.7  9.2  1.006 -99.9 -99.99 -9.99
2019/12/07 19:12 EST    3.13   4.00   14   24   17  63.0  65.1 1023.7  9.2  1.006 -99.9 -99.99 -9.99
2019/12/07 19:18 EST    3.03   3.92   12   18   16  62.6  65.1 1023.8  9.2  1.006 -99.9 -99.99 -9.99
2019/12/07 19:24 EST    2.93   3.81   11   19   16  62.6  65.1 1023.8  9.2  1.006 -99.9 -99.99 -9.99
2019/12/07 19:30 EST    2.83   3.71   11   21   15  62.6  65.1 1023.8  9.2  1.006 -99.9 -99.99 -9.99
2019/12/07 19:36 EST    2.72   3.59   10   26   14  62.8  64.9 1023.8  9.2  1.006 -99.9 -99.99 -9.99
2019/12/07 19:42 EST    2.62   3.47   10   23   12  62.8  64.9 1023.9  9.2  1.006 -99.9 -99.99 -9.99
2019/12/07 19:48 EST    2.51   3.37   11   26   12  62.8  64.8 1023.8  9.2  1.006 -99.9 -99.99 -9.99
2019/12/07 19:54 EST    2.41   3.25   10   24   13  62.6  64.8 1023.8  9.1  1.006 -99.9 -99.99 -9.99
2019/12/07 20:00 EST    2.30   3.13   10   25   13  62.6  64.8 1023.9  9.1  1.006 -99.9 -99.99 -9.99
2019/12/07 20:06 EST    2.20   3.03   11   28   14  62.8  64.8 1023.8  9.1  1.006 -99.9 -99.99 -9.99
2019/12/07 20:12 EST    2.09   2.90   10   25   13  62.6  64.6 1023.8  9.1  1.006 -99.9 -99.99 -9.99
2019/12/07 20:18 EST    1.99   2.78   12   26   14  62.6  64.6 1023.8  9.0  1.006 -99.9 -99.99 -9.99
2019/12/07 20:24 EST    1.89   2.65   11   26   14  62.6  64.6 1023.8  8.9  1.006 -99.9 -99.99 -9.99
2019/12/07 20:30 EST    1.79   2.53   11   30   14  63.0  64.6 1023.9  9.0  1.006 -99.9 -99.99 -9.99
2019/12/07 20:36 EST    1.70   2.42   13   37   15  63.5  64.6 1023.9  8.9  1.006 -99.9 -99.99 -9.99
2019/12/07 20:42 EST    1.61   2.31   11   31   15  63.1  64.6 1023.9  9.0  1.006 -99.9 -99.99 -9.99
2019/12/07 20:48 EST    1.52   2.22   12   37   15  63.7  64.6 1023.9  9.0  1.006 -99.9 -99.99 -9.99
2019/12/07 20:54 EST    1.43   2.13   14   37   17  63.7  64.6 1023.9  8.9  1.006 -99.9 -99.99 -9.99
2019/12/07 21:00 EST    1.35   2.04   12   33   15  63.5  64.6 1023.8  8.9  1.006 -99.9 -99.99 -9.99
2019/12/07 21:06 EST    1.27   1.97   14   35   16  63.7  64.6 1023.8  8.9  1.006 -99.9 -99.99 -9.99
2019/12/07 21:12 EST    1.19   1.93   15   36   17  63.9  64.8 1023.9  8.9  1.006 -99.9 -99.99 -9.99
2019/12/07 21:18 EST    1.12   1.86   14   37   17  63.9  64.6 1023.9  8.9  1.006 -99.9 -99.99 -9.99
2019/12/07 21:24 EST    1.05   1.78   14   39   17  63.9  64.4 1023.9  8.8  1.006 -99.9 -99.99 -9.99
2019/12/07 21:30 EST    0.98   1.71   12   36   16  63.7  64.2 1023.9  8.8  1.006 -99.9 -99.99 -9.99
2019/12/07 21:36 EST    0.92   1.65   15   37   17  63.7  64.2 1023.9  8.7  1.006 -99.9 -99.99 -9.99
2019/12/07 21:42 EST    0.86   1.60   12   30   15  63.1  64.2 1023.9  8.7  1.006 -99.9 -99.99 -9.99
2019/12/07 21:48 EST    0.81   1.57   11   35   14  63.5  64.2 1024.0  8.6  1.006 -99.9 -99.99 -9.99
2019/12/07 21:54 EST    0.76   1.53   12   37   15  63.5  64.2 1024.0  8.6  1.006 -99.9 -99.99 -9.99
2019/12/07 22:00 EST    0.71   1.51   12   33   14  63.5  64.4 1024.0  8.6  1.006 -99.9 -99.99 -9.99
2019/12/07 22:06 EST    0.66   1.47   10   30   15  63.5  64.2 1024.0  8.6  1.006 -99.9 -99.99 -9.99
2019/12/07 22:12 EST    0.63   1.45   10   33   13  63.5  64.2 1024.0  8.6  1.006 -99.9 -99.99 -9.99
2019/12/07 22:18 EST    0.59   1.42   11   40   13  63.9  64.4 1024.0  8.5  1.006 -99.9 -99.99 -9.99
2019/12/07 22:24 EST    0.56   1.38   12   39   14  63.9  64.2 1024.0  8.5  1.006 -99.9 -99.99 -9.99
2019/12/07 22:30 EST    0.53   1.34   12   37   15  63.9  64.2 1023.9  8.5  1.006 -99.9 -99.99 -9.99
2019/12/07 22:36 EST    0.51   1.32   12   38   16  63.9  64.0 1023.9  8.5  1.006 -99.9 -99.99 -9.99
2019/12/07 22:42 EST    0.50   1.32   12   37   15  63.9  64.0 1023.9  8.4  1.006 -99.9 -99.99 -9.99
2019/12/07 22:48 EST    0.48   1.35   13   39   16  63.9  64.0 1023.9  8.4  1.006 -99.9 -99.99 -9.99
2019/12/07 22:54 EST    0.48   1.38   12   41   14  63.9  64.0 1023.9  8.3  1.006 -99.9 -99.99 -9.99
2019/12/07 23:00 EST    0.48   1.40   12   40   16  63.9  64.0 1023.8  8.3  1.006 -99.9 -99.99 -9.99
2019/12/07 23:06 EST    0.48   1.44   14   43   17  64.0  64.0 1023.7  8.3  1.006 -99.9 -99.99 -9.99
2019/12/07 23:12 EST    0.49   1.47   14   44   16  64.0  63.9 1023.7  8.2  1.006 -99.9 -99.99 -9.99
2019/12/07 23:18 EST    0.51   1.48   12   44   16  64.0  63.9 1023.6  8.2  1.006 -99.9 -99.99 -9.99
2019/12/07 23:24 EST    0.53   1.51   13   46   16  64.0  63.9 1023.6  8.1  1.006 -99.9 -99.99 -9.99
2019/12/07 23:30 EST    0.55   1.55   14   41   17  64.0  63.9 1023.5  8.1  1.006 -99.9 -99.99 -9.99
2019/12/07 23:36 EST    0.59   1.59   13   43   17  64.0  63.9 1023.5  8.0  1.006 -99.9 -99.99 -9.99
2019/12/07 23:42 EST    0.62   1.66   13   42   16  64.0  63.7 1023.5  8.0  1.006 -99.9 -99.99 -9.99
2019/12/07 23:48 EST    0.67   1.72   13   43   16  64.0  63.7 1023.6  7.9  1.006 -99.9 -99.99 -9.99
2019/12/07 23:54 EST    0.71   1.78   14   42   17  64.0  63.7 1023.6  7.8  1.006 -99.9 -99.99 -9.99
2019/12/08 00:00 EST    0.77   1.81   12   39   17  64.0  63.7 1023.5  7.8  1.006 -99.9 -99.99 -9.99
2019/12/08 00:06 EST    0.82   1.89   13   41   17  64.0  63.7 1023.4  7.8  1.006 -99.9 -99.99 -9.99
2019/12/08 00:12 EST    0.89   1.99   14   41   16  64.0  63.7 1023.3  7.8  1.006 -99.9 -99.99 -9.99
2019/12/08 00:18 EST    0.95   2.06   14   41   16  64.0  63.7 1023.3  7.7  1.005 -99.9 -99.99 -9.99
2019/12/08 00:24 EST    1.03   2.12   14   40   17  64.0  63.5 1023.2  7.7  1.005 -99.9 -99.99 -9.99
2019/12/08 00:30 EST    1.10   2.17   15   42   17  64.2  63.5 1023.2  7.7  1.005 -99.9 -99.99 -9.99
2019/12/08 00:36 EST    1.18   2.23   13   41   17  64.0  63.5 1023.2  7.6  1.005 -99.9 -99.99 -9.99
2019/12/08 00:42 EST    1.26   2.31   15   41   18  64.2  63.5 1023.2  7.6  1.005 -99.9 -99.99 -9.99
2019/12/08 00:48 EST    1.35   2.36   16   43   18  64.2  63.5 1023.1  7.6  1.005 -99.9 -99.99 -9.99
2019/12/08 00:54 EST    1.43   2.43   13   42   17  64.2  63.5 1023.1  7.6  1.005 -99.9 -99.99 -9.99
2019/12/08 01:00 EST    1.52   2.53   14   45   17  64.2  63.3 1023.1  7.6  1.005 -99.9 -99.99 -9.99
2019/12/08 01:06 EST    1.61   2.63   15   43   18  64.2  63.3 1023.1  7.6  1.005 -99.9 -99.99 -9.99
2019/12/08 01:12 EST    1.71   2.73   13   41   18  64.2  63.3 1023.1  7.5  1.005 -99.9 -99.99 -9.99
2019/12/08 01:18 EST    1.80   2.81   14   43   18  64.2  63.5 1023.0  7.5  1.005 -99.9 -99.99 -9.99
2019/12/08 01:24 EST    1.90   2.91   15   43   18  64.2  63.5 1023.0  7.5  1.005 -99.9 -99.99 -9.99
2019/12/08 01:30 EST    1.99   3.03   16   41   18  64.2  63.3 1023.0  7.5  1.005 -99.9 -99.99 -9.99
2019/12/08 01:36 EST    2.09   3.13   15   45   18  64.2  63.3 1022.9  7.4  1.005 -99.9 -99.99 -9.99
2019/12/08 01:42 EST    2.18   3.23   15   43   18  64.2  63.3 1022.9  7.4  1.005 -99.9 -99.99 -9.99
2019/12/08 01:48 EST    2.28   3.32   16   44   19  64.2  63.3 1022.9  7.4  1.005 -99.9 -99.99 -9.99
2019/12/08 01:54 EST    2.38   3.41   16   43   18  64.2  63.3 1023.0  7.3  1.005 -99.9 -99.99 -9.99
2019/12/08 02:00 EST    2.47   3.50   14   40   17  64.2  63.3 1023.0  7.4  1.005 -99.9 -99.99 -9.99
2019/12/08 02:06 EST    2.57   3.61   15   42   17  64.2  63.3 1023.0  7.4  1.005 -99.9 -99.99 -9.99
2019/12/08 02:12 EST    2.66   3.68   16   40   18  64.4  63.3 1023.0  7.3  1.005 -99.9 -99.99 -9.99
2019/12/08 02:18 EST    2.76   3.76   15   41   18  64.4  63.3 1023.0  7.4  1.005 -99.9 -99.99 -9.99
2019/12/08 02:24 EST    2.85   3.84   16   41   18  64.4  63.3 1023.0  7.4  1.005 -99.9 -99.99 -9.99
2019/12/08 02:30 EST    2.94   3.93   15   43   19  64.2  63.3 1023.0  7.5  1.005 -99.9 -99.99 -9.99
2019/12/08 02:36 EST    3.03   4.05   17   42   19  64.4  63.5 1023.0  7.4  1.005 -99.9 -99.99 -9.99
2019/12/08 02:42 EST    3.12   4.16   15   41   18  64.2  63.5 1023.0  7.5  1.005 -99.9 -99.99 -9.99
2019/12/08 02:48 EST    3.21   4.24   15   39   19  64.4  63.5 1023.0  7.4  1.005 -99.9 -99.99 -9.99
2019/12/08 02:54 EST    3.30   4.31   15   40   18  64.4  63.5 1023.0  7.5  1.005 -99.9 -99.99 -9.99
2019/12/08 03:00 EST    3.38   4.39   16   40   18  64.4  63.7 1022.9  7.6  1.005 -99.9 -99.99 -9.99
2019/12/08 03:06 EST    3.47   4.47   16   39   19  64.4  63.9 1022.9  7.7  1.005 -99.9 -99.99 -9.99
2019/12/08 03:12 EST    3.55   4.55   16   39   18  64.4  64.0 1022.9  7.7  1.005 -99.9 -99.99 -9.99
2019/12/08 03:18 EST    3.63   4.63   16   40   19  64.4  64.2 1022.9  7.8  1.005 -99.9 -99.99 -9.99
2019/12/08 03:24 EST    3.70   4.71   15   41   18  64.4  64.4 1022.9  7.9  1.006 -99.9 -99.99 -9.99
2019/12/08 03:30 EST    3.78   4.79   16   38   18  64.4  64.8 1022.8  8.1  1.006 -99.9 -99.99 -9.99
2019/12/08 03:36 EST    3.85   4.87   16   39   20  64.6  64.8 1022.9  8.3  1.006 -99.9 -99.99 -9.99
2019/12/08 03:42 EST    3.92   4.93   17   37   20  64.6  64.8 1022.9  8.4  1.006 -99.9 -99.99 -9.99
2019/12/08 03:48 EST    3.99   4.98   16   38   19  64.6  64.8 1022.9  8.5  1.006 -99.9 -99.99 -9.99
2019/12/08 03:54 EST    4.05   5.08   16   38   18  64.4  64.8 1022.9  8.6  1.006 -99.9 -99.99 -9.99
2019/12/08 04:00 EST    4.11   5.14   16   40   19  64.6  64.8 1022.9  8.7  1.006 -99.9 -99.99 -9.99
2019/12/08 04:06 EST    4.17   5.17   16   36   19  64.6  64.8 1022.8  8.8  1.006 -99.9 -99.99 -9.99
2019/12/08 04:12 EST    4.23   5.22   17   38   19  64.6  64.8 1022.8  8.9  1.006 -99.9 -99.99 -9.99
2019/12/08 04:18 EST    4.28   5.27   17   38   19  64.8  64.8 1022.9  8.9  1.006 -99.9 -99.99 -9.99
2019/12/08 04:24 EST    4.33   5.32   16   38   20  64.8  64.8 1022.9  9.0  1.006 -99.9 -99.99 -9.99
2019/12/08 04:30 EST    4.37   5.35   17   37   21  64.8  64.8 1022.9  9.0  1.006 -99.9 -99.99 -9.99
2019/12/08 04:36 EST    4.41   5.40   17   38   19  64.8  64.9 1022.8  9.0  1.006 -99.9 -99.99 -9.99
2019/12/08 04:42 EST    4.45   5.45   17   38   21  64.8  64.9 1022.9  9.0  1.006 -99.9 -99.99 -9.99
2019/12/08 04:48 EST    4.49   5.49   18   41   20  64.8  64.9 1022.9  9.1  1.006 -99.9 -99.99 -9.99
2019/12/08 04:54 EST    4.52   5.50   17   39   20  64.8  64.9 1023.0  9.1  1.006 -99.9 -99.99 -9.99
2019/12/08 05:00 EST    4.54   5.52   17   40   20  64.8  64.9 1023.0  9.1  1.006 -99.9 -99.99 -9.99
2019/12/08 05:06 EST    4.57   5.55   18   38   21  64.9  64.9 1023.0  9.1  1.006 -99.9 -99.99 -9.99
2019/12/08 05:12 EST    4.59   5.59   16   33   20  64.8  64.9 1023.0  9.1  1.006 -99.9 -99.99 -9.99
2019/12/08 05:18 EST    4.60   5.61   16   37   18  64.8  64.9 1023.1  9.1  1.006 -99.9 -99.99 -9.99
2019/12/08 05:24 EST    4.61   5.61   16   36   20  64.8  64.9 1023.1  9.1  1.006 -99.9 -99.99 -9.99
2019/12/08 05:30 EST    4.62   5.62   17   37   19  64.8  64.9 1023.1  9.2  1.006 -99.9 -99.99 -9.99
2019/12/08 05:36 EST    4.62   5.62   17   36   21  64.8  64.9 1023.1  9.2  1.006 -99.9 -99.99 -9.99
2019/12/08 05:42 EST    4.62   5.63   16   38   20  64.8  64.9 1023.2  9.2  1.006 -99.9 -99.99 -9.99
2019/12/08 05:48 EST    4.61   5.63   16   36   20  64.8  64.9 1023.2  9.2  1.006 -99.9 -99.99 -9.99
2019/12/08 05:54 EST    4.60   5.63   17   37   20  64.8  64.9 1023.2  9.2  1.006 -99.9 -99.99 -9.99
2019/12/08 06:00 EST    4.58 -99.99 -999 -999 -999 -99.9 -99.9 -999.9 -9.9 -9.999 -99.9 -99.99 -9.99
2019/12/08 06:06 EST    4.56 -99.99 -999 -999 -999 -99.9 -99.9 -999.9 -9.9 -9.999 -99.9 -99.99 -9.99
2019/12/08 06:12 EST    4.53 -99.99 -999 -999 -999 -99.9 -99.9 -999.9 -9.9 -9.999 -99.9 -99.99 -9.99
2019/12/08 06:18 EST    4.50 -99.99 -999 -999 -999 -99.9 -99.9 -999.9 -9.9 -9.999 -99.9 -99.99 -9.99
2019/12/08 06:24 EST    4.46 -99.99 -999 -999 -999 -99.9 -99.9 -999.9 -9.9 -9.999 -99.9 -99.99 -9.99
2019/12/08 06:30 EST    4.41 -99.99 -999 -999 -999 -99.9 -99.9 -999.9 -9.9 -9.999 -99.9 -99.99 -9.99
2019/12/08 06:36 EST    4.36 -99.99 -999 -999 -999 -99.9 -99.9 -999.9 -9.9 -9.999 -99.9 -99.99 -9.99
2019/12/08 06:42 EST    4.31 -99.99 -999 -999 -999 -99.9 -99.9 -999.9 -9.9 -9.999 -99.9 -99.99 -9.99
2019/12/08 06:48 EST    4.25 -99.99 -999 -999 -999 -99.9 -99.9 -999.9 -9.9 -9.999 -99.9 -99.99 -9.99
2019/12/08 06:54 EST    4.18 -99.99 -999 -999 -999 -99.9 -99.9 -999.9 -9.9 -9.999 -99.9 -99.99 -9.99
2019/12/08 07:00 EST    4.11 -99.99 -999 -999 -999 -99.9 -99.9 -999.9 -9.9 -9.999 -99.9 -99.99 -9.99
2019/12/08 07:06 EST    4.04 -99.99 -999 -999 -999 -99.9 -99.9 -999.9 -9.9 -9.999 -99.9 -99.99 -9.99
2019/12/08 07:12 EST    3.96 -99.99 -999 -999 -999 -99.9 -99.9 -999.9 -9.9 -9.999 -99.9 -99.99 -9.99
2019/12/08 07:18 EST    3.88 -99.99 -999 -999 -999 -99.9 -99.9 -999.9 -9.9 -9.999 -99.9 -99.99 -9.99
2019/12/08 07:24 EST    3.79 -99.99 -999 -999 -999 -99.9 -99.9 -999.9 -9.9 -9.999 -99.9 -99.99 -9.99
2019/12/08 07:30 EST    3.70 -99.99 -999 -999 -999 -99.9 -99.9 -999.9 -9.9 -9.999 -99.9 -99.99 -9.99
2019/12/08 07:36 EST    3.60 -99.99 -999 -999 -999 -99.9 -99.9 -999.9 -9.9 -9.999 -99.9 -99.99 -9.99
2019/12/08 07:42 EST    3.50 -99.99 -999 -999 -999 -99.9 -99.9 -999.9 -9.9 -9.999 -99.9 -99.99 -9.99
2019/12/08 07:48 EST    3.40 -99.99 -999 -999 -999 -99.9 -99.9 -999.9 -9.9 -9.999 -99.9 -99.99 -9.99
2019/12/08 07:54 EST    3.30 -99.99 -999 -999 -999 -99.9 -99.9 -999.9 -9.9 -9.999 -99.9 -99.99 -9.99
2019/12/08 08:00 EST    3.20 -99.99 -999 -999 -999 -99.9 -99.9 -999.9 -9.9 -9.999 -99.9 -99.99 -9.99
2019/12/08 08:06 EST    3.09 -99.99 -999 -999 -999 -99.9 -99.9 -999.9 -9.9 -9.999 -99.9 -99.99 -9.99
2019/12/08 08:12 EST    2.99 -99.99 -999 -999 -999 -99.9 -99.9 -999.9 -9.9 -9.999 -99.9 -99.99 -9.99
2019/12/08 08:18 EST    2.88 -99.99 -999 -999 -999 -99.9 -99.9 -999.9 -9.9 -9.999 -99.9 -99.99 -9.99
2019/12/08 08:24 EST    2.77 -99.99 -999 -999 -999 -99.9 -99.9 -999.9 -9.9 -9.999 -99.9 -99.99 -9.99
2019/12/08 08:30 EST    2.67 -99.99 -999 -999 -999 -99.9 -99.9 -999.9 -9.9 -9.999 -99.9 -99.99 -9.99
2019/12/08 08:36 EST    2.56 -99.99 -999 -999 -999 -99.9 -99.9 -999.9 -9.9 -9.999 -99.9 -99.99 -9.99
2019/12/08 08:42 EST    2.46 -99.99 -999 -999 -999 -99.9 -99.9 -999.9 -9.9 -9.999 -99.9 -99.99 -9.99
2019/12/08 08:48 EST    2.36 -99.99 -999 -999 -999 -99.9 -99.9 -999.9 -9.9 -9.999 -99.9 -99.99 -9.99
2019/12/08 08:54 EST    2.26 -99.99 -999 -999 -999 -99.9 -99.9 -999.9 -9.9 -9.999 -99.9 -99.99 -9.99
2019/12/08 09:00 EST    2.16 -99.99 -999 -999 -999 -99.9 -99.9 -999.9 -9.9 -9.999 -99.9 -99.99 -9.99
2019/12/08 09:06 EST    2.06 -99.99 -999 -999 -999 -99.9 -99.9 -999.9 -9.9 -9.999 -99.9 -99.99 -9.99
2019/12/08 09:12 EST    1.97 -99.99 -999 -999 -999 -99.9 -99.9 -999.9 -9.9 -9.999 -99.9 -99.99 -9.99
2019/12/08 09:18 EST    1.88 -99.99 -999 -999 -999 -99.9 -99.9 -999.9 -9.9 -9.999 -99.9 -99.99 -9.99
2019/12/08 09:24 EST    1.79 -99.99 -999 -999 -999 -99.9 -99.9 -999.9 -9.9 -9.999 -99.9 -99.99 -9.99
2019/12/08 09:30 EST    1.71 -99.99 -999 -999 -999 -99.9 -99.9 -999.9 -9.9 -9.999 -99.9 -99.99 -9.99
2019/12/08 09:36 EST    1.63 -99.99 -999 -999 -999 -99.9 -99.9 -999.9 -9.9 -9.999 -99.9 -99.99 -9.99
2019/12/08 09:42 EST    1.55 -99.99 -999 -999 -999 -99.9 -99.9 -999.9 -9.9 -9.999 -99.9 -99.99 -9.99
2019/12/08 09:48 EST    1.48 -99.99 -999 -999 -999 -99.9 -99.9 -999.9 -9.9 -9.999 -99.9 -99.99 -9.99
2019/12/08 09:54 EST    1.40 -99.99 -999 -999 -999 -99.9 -99.9 -999.9 -9.9 -9.999 -99.9 -99.99 -9.99
2019/12/08 10:00 EST    1.34 -99.99 -999 -999 -999 -99.9 -99.9 -999.9 -9.9 -9.999 -99.9 -99.99 -9.99
2019/12/08 10:06 EST    1.27 -99.99 -999 -999 -999 -99.9 -99.9 -999.9 -9.9 -9.999 -99.9 -99.99 -9.99
2019/12/08 10:12 EST    1.21 -99.99 -999 -999 -999 -99.9 -99.9 -999.9 -9.9 -9.999 -99.9 -99.99 -9.99
2019/12/08 10:18 EST    1.15 -99.99 -999 -999 -999 -99.9 -99.9 -999.9 -9.9 -9.999 -99.9 -99.99 -9.99
2019/12/08 10:24 EST    1.10 -99.99 -999 -999 -999 -99.9 -99.9 -999.9 -9.9 -9.999 -99.9 -99.99 -9.99
2019/12/08 10:30 EST    1.04 -99.99 -999 -999 -999 -99.9 -99.9 -999.9 -9.9 -9.999 -99.9 -99.99 -9.99
2019/12/08 10:36 EST    1.00 -99.99 -999 -999 -999 -99.9 -99.9 -999.9 -9.9 -9.999 -99.9 -99.99 -9.99
2019/12/08 10:42 EST    0.95 -99.99 -999 -999 -999 -99.9 -99.9 -999.9 -9.9 -9.999 -99.9 -99.99 -9.99
2019/12/08 10:48 EST    0.91 -99.99 -999 -999 -999 -99.9 -99.9 -999.9 -9.9 -9.999 -99.9 -99.99 -9.99
2019/12/08 10:54 EST    0.88 -99.99 -999 -999 -999 -99.9 -99.9 -999.9 -9.9 -9.999 -99.9 -99.99 -9.99
2019/12/08 11:00 EST    0.85 -99.99 -999 -999 -999 -99.9 -99.9 -999.9 -9.9 -9.999 -99.9 -99.99 -9.99
2019/12/08 11:06 EST    0.82 -99.99 -999 -999 -999 -99.9 -99.9 -999.9 -9.9 -9.999 -99.9 -99.99 -9.99
2019/12/08 11:12 EST    0.80 -99.99 -999 -999 -999 -99.9 -99.9 -999.9 -9.9 -9.999 -99.9 -99.99 -9.99
2019/12/08 11:18 EST    0.78 -99.99 -999 -999 -999 -99.9 -99.9 -999.9 -9.9 -9.999 -99.9 -99.99 -9.99
2019/12/08 11:24 EST    0.76 -99.99 -999 -999 -999 -99.9 -99.9 -999.9 -9.9 -9.999 -99.9 -99.99 -9.99
2019/12/08 11:30 EST    0.76 -99.99 -999 -999 -999 -99.9 -99.9 -999.9 -9.9 -9.999 -99.9 -99.99 -9.99
2019/12/08 11:36 EST    0.75 -99.99 -999 -999 -999 -99.9 -99.9 -999.9 -9.9 -9.999 -99.9 -99.99 -9.99
2019/12/08 11:42 EST    0.76 -99.99 -999 -999 -999 -99.9 -99.9 -999.9 -9.9 -9.999 -99.9 -99.99 -9.99
2019/12/08 11:48 EST    0.76 -99.99 -999 -999 -999 -99.9 -99.9 -999.9 -9.9 -9.999 -99.9 -99.99 -9.99
2019/12/08 11:54 EST    0.77 -99.99 -999 -999 -999 -99.9 -99.9 -999.9 -9.9 -9.999 -99.9 -99.99 -9.99
2019/12/08 12:00 EST    0.79 -99.99 -999 -999 -999 -99.9 -99.9 -999.9 -9.9 -9.999 -99.9 -99.99 -9.99
2019/12/08 12:06 EST    0.82 -99.99 -999 -999 -999 -99.9 -99.9 -999.9 -9.9 -9.999 -99.9 -99.99 -9.99